Terminal Aerodrome Forecast
Issued by NWS St Louis, MO

Home | Current Version | Previous Version | Text Only | Print | Product List | Glossary On
Versions: 1 2 3 4 5 6 7 8 9 10 11 12 13 14
590
FTUS43 KLSX 211726
TAFCOU
TAF
KCOU 211726Z 2118/2218 10012KT P6SM BKN200
     FM220700 08010KT P6SM VCSH OVC060
     FM221000 07010KT P6SM VCSH OVC025
     FM221700 07011G18KT P6SM OVC035=

USA.gov is the U.S. government's official web portal to all federal, state and local government web resources and services.